createdAt,value
2022-11-01T01:32:29.270Z,5.45
2022-11-01T01:35:17.952Z,4.57
2022-11-01T01:38:06.762Z,4.50
2022-11-01T01:40:55.460Z,4.72
2022-11-01T01:43:44.834Z,4.80
2022-11-01T01:46:33.417Z,4.53
2022-11-01T01:49:23.350Z,5.38
2022-11-01T01:52:11.943Z,4.93
2022-11-01T01:55:01.344Z,4.32
2022-11-01T01:57:50.095Z,4.15
2022-11-01T02:00:38.599Z,5.28
2022-11-01T02:03:29.322Z,4.40
2022-11-01T02:09:18.127Z,5.15
2022-11-01T02:12:07.156Z,5.05
2022-11-01T02:14:55.935Z,4.63
2022-11-01T02:18:09.115Z,4.75
2022-11-01T02:21:15.615Z,4.78
2022-11-01T02:24:40.521Z,4.68
2022-11-01T02:27:34.137Z,5.13
2022-11-01T02:30:22.987Z,4.68
2022-11-01T02:33:18.886Z,4.78
2022-11-01T02:36:10.343Z,5.30
2022-11-01T02:39:01.917Z,5.28
2022-11-01T02:41:53.640Z,5.18
2022-11-01T02:44:45.026Z,5.25
2022-11-01T02:47:34.498Z,4.90
2022-11-01T02:50:24.745Z,5.00
2022-11-01T02:53:14.658Z,5.28
2022-11-01T02:56:03.229Z,5.95
2022-11-01T02:58:53.478Z,5.20
2022-11-01T03:01:53.155Z,4.88
2022-11-01T05:15:53.210Z,3.42
2022-11-01T05:18:48.915Z,3.95
2022-11-01T05:21:37.472Z,4.00
2022-11-01T05:24:25.856Z,4.07
2022-11-01T05:27:14.512Z,4.10
2022-11-01T05:30:03.355Z,4.40
2022-11-01T06:27:17.338Z,5.32
2022-11-01T06:30:06.575Z,4.93
2022-11-01T06:33:01.156Z,4.78
2022-11-01T06:35:50.021Z,5.10
2022-11-01T06:38:38.515Z,5.13
2022-11-01T06:41:27.010Z,4.85
2022-11-01T06:44:16.960Z,5.53
2022-11-01T06:47:05.778Z,5.13
2022-11-01T06:49:54.490Z,5.03
2022-11-01T08:02:07.844Z,3.97
2022-11-01T08:04:58.134Z,4.05
2022-11-01T08:07:46.663Z,4.28
2022-11-01T08:10:36.143Z,4.18
2022-11-01T08:13:25.678Z,4.65
2022-11-01T08:16:18.173Z,4.40
2022-11-01T08:19:06.713Z,4.15
2022-11-01T08:21:58.853Z,4.85
2022-11-01T08:24:49.862Z,4.30
2022-11-01T08:27:38.404Z,5.25
2022-11-01T08:30:26.984Z,4.60
2022-11-01T08:33:15.744Z,4.13
2022-11-01T08:36:04.478Z,4.00
2022-11-01T08:38:54.411Z,4.28
2022-11-01T08:41:43.076Z,4.10
2022-11-01T08:44:31.556Z,4.25
2022-11-01T08:47:20.046Z,4.10
2022-11-01T08:50:11.447Z,4.82
2022-11-01T11:09:40.740Z,4.40
2022-11-01T11:12:30.006Z,4.30
2022-11-01T11:15:22.408Z,4.82
2022-11-01T11:18:20.486Z,4.80
2022-11-01T11:21:11.741Z,5.07
2022-11-01T11:24:00.409Z,5.13
2022-11-01T11:26:55.525Z,4.45
2022-11-01T11:29:49.395Z,4.85
2022-11-01T12:37:26.379Z,4.80
2022-11-01T12:40:19.823Z,5.65
2022-11-01T12:43:16.004Z,4.43
2022-11-01T12:46:07.329Z,4.32
2022-11-01T12:48:58.305Z,4.10
2022-11-01T13:28:05.823Z,3.95
2022-11-01T13:31:01.748Z,4.82
2022-11-01T13:33:55.157Z,4.35
2022-11-01T13:36:49.066Z,4.35
2022-11-01T13:39:45.998Z,4.75
2022-11-01T13:42:38.542Z,5.03
2022-11-01T13:45:59.609Z,4.55
2022-11-01T13:49:07.583Z,4.97
2022-11-01T13:52:01.414Z,4.50
2022-11-01T13:54:55.015Z,4.70
2022-11-01T14:02:34.813Z,5.10
2022-11-01T14:05:23.706Z,5.03
2022-11-01T14:08:29.309Z,4.97
2022-11-01T14:11:45.477Z,4.63
2022-11-01T14:14:55.142Z,5.32
2022-11-01T14:18:09.851Z,5.00
2022-11-01T14:20:59.763Z,5.38
2022-11-01T14:23:51.021Z,5.40
2022-11-01T14:26:47.048Z,5.35
2022-11-01T14:29:37.180Z,5.55
2022-11-01T14:32:27.581Z,5.18
2022-11-01T14:35:23.134Z,5.75
2022-11-01T14:38:16.168Z,5.60
2022-11-01T14:41:05.684Z,5.20
2022-11-01T14:43:56.642Z,6.10
2022-11-01T14:46:47.044Z,7.70
2022-11-01T14:49:40.461Z,7.70
2022-11-01T15:08:22.801Z,9.27
2022-11-01T15:11:11.390Z,7.43
2022-11-01T15:14:01.131Z,7.45
2022-11-01T15:16:51.212Z,7.75
2022-11-01T15:19:40.295Z,6.68
2022-11-01T15:22:30.693Z,6.60
2022-11-01T15:25:23.683Z,6.65
2022-11-01T15:28:21.239Z,7.03
2022-11-01T15:31:11.037Z,7.20
2022-11-01T15:34:01.868Z,8.05
2022-11-01T15:36:50.872Z,9.48
2022-11-01T15:39:41.862Z,10.02
2022-11-01T15:42:34.120Z,10.15
2022-11-01T15:45:30.144Z,9.05
2022-11-01T15:48:21.566Z,9.27
2022-11-01T15:51:20.199Z,9.35
2022-11-01T15:54:17.472Z,9.80
2022-11-01T15:57:12.001Z,10.23
2022-11-01T16:00:06.701Z,9.48
2022-11-01T16:03:00.620Z,10.02
2022-11-01T16:05:56.679Z,9.93
2022-11-01T16:08:50.870Z,8.85
2022-11-01T16:11:39.573Z,8.85
2022-11-01T16:14:34.839Z,9.25
2022-11-01T16:17:36.301Z,8.75
2022-11-01T16:20:30.542Z,10.75
2022-11-01T16:23:28.418Z,9.50
2022-11-01T16:26:16.931Z,8.98
2022-11-01T16:29:05.700Z,8.85
2022-11-01T16:32:09.854Z,9.32
2022-11-01T16:35:00.509Z,9.07
2022-11-01T16:37:48.940Z,9.00
2022-11-01T16:40:39.158Z,9.88
2022-11-01T16:43:29.511Z,9.25
2022-11-01T16:46:18.032Z,8.93
2022-11-01T16:49:19.535Z,9.13
2022-11-01T16:52:12.373Z,8.38
2022-11-01T16:57:54.809Z,8.90
2022-11-01T17:00:43.634Z,8.60
2022-11-01T17:03:32.787Z,9.57
2022-11-01T17:06:21.996Z,9.63
2022-11-01T17:09:14.897Z,8.82
2022-11-01T17:12:03.428Z,9.07
2022-11-01T17:14:52.440Z,8.40
2022-11-01T17:17:41.415Z,9.07
2022-11-01T17:20:30.048Z,7.90
2022-11-01T17:23:20.672Z,8.93
2022-11-01T17:26:13.200Z,9.45
2022-11-01T17:29:02.743Z,8.48
2022-11-01T17:31:51.258Z,9.38
2022-11-01T17:34:40.142Z,8.02
2022-11-01T17:37:32.229Z,8.98
2022-11-01T17:40:22.720Z,9.30
2022-11-01T17:43:19.068Z,9.35
2022-11-01T17:46:11.654Z,8.40
2022-11-01T17:49:00.634Z,9.20
2022-11-01T17:51:54.698Z,8.43
2022-11-01T17:54:43.664Z,9.57
2022-11-01T17:57:32.340Z,9.80
2022-11-01T18:00:22.394Z,9.73
2022-11-01T18:03:14.728Z,9.98
2022-11-01T18:06:03.329Z,10.25
2022-11-01T18:08:54.048Z,10.75
2022-11-01T18:11:48.053Z,10.60
2022-11-01T18:14:56.519Z,9.52
2022-11-01T18:17:53.927Z,9.93
2022-11-01T18:20:47.189Z,9.73
2022-11-01T18:23:36.127Z,10.48
2022-11-01T18:26:29.614Z,10.73
2022-11-01T18:29:21.220Z,9.88
2022-11-01T18:32:18.201Z,10.10
2022-11-01T18:35:17.638Z,9.90
2022-11-01T18:38:17.824Z,10.25
2022-11-01T18:41:13.357Z,9.43
2022-11-01T18:44:01.967Z,8.65
2022-11-01T18:46:54.677Z,8.77
2022-11-01T18:49:43.093Z,9.57
2022-11-01T18:52:35.101Z,9.27
2022-11-01T18:55:23.840Z,9.50
2022-11-01T18:58:16.626Z,9.98
2022-11-01T19:01:13.723Z,9.98
2022-11-01T19:04:03.735Z,10.30
2022-11-01T19:06:52.499Z,10.30
2022-11-01T19:09:44.655Z,9.82
2022-11-01T19:12:35.699Z,10.95
2022-11-01T19:15:27.789Z,9.05
2022-11-01T19:18:19.802Z,10.35
2022-11-01T19:21:15.025Z,9.30
2022-11-01T19:24:10.233Z,9.98
2022-11-01T19:27:01.625Z,10.20
2022-11-01T19:29:55.377Z,9.60
2022-11-01T19:32:46.297Z,9.35
2022-11-01T19:35:35.089Z,10.15
2022-11-01T19:38:24.278Z,10.32
2022-11-01T19:41:14.166Z,9.35
2022-11-01T19:44:12.032Z,10.18
2022-11-01T19:47:03.813Z,10.27
2022-11-01T19:49:52.612Z,10.20
2022-11-01T19:52:46.892Z,10.25
2022-11-01T19:55:39.353Z,9.90
2022-11-01T19:58:37.304Z,10.65
2022-11-01T20:01:41.920Z,10.48
2022-11-01T20:04:32.591Z,10.30
2022-11-01T20:07:26.706Z,10.32
2022-11-01T20:10:15.269Z,9.98
2022-11-01T20:13:03.879Z,9.05
2022-11-01T20:15:52.540Z,10.80
2022-11-01T20:18:42.300Z,10.45
2022-11-01T20:21:30.959Z,10.82
2022-11-01T20:24:19.427Z,10.95
2022-11-01T20:27:08.036Z,10.60
2022-11-01T20:29:56.516Z,9.85
2022-11-01T20:32:48.194Z,10.52
2022-11-01T20:35:38.549Z,9.70
2022-11-01T20:38:26.977Z,10.32
2022-11-01T20:41:15.477Z,10.27
2022-11-01T20:44:03.984Z,10.75
2022-11-01T20:46:53.431Z,10.18
2022-11-01T20:49:41.910Z,11.00
2022-11-01T20:52:39.576Z,10.95
2022-11-01T20:55:28.881Z,11.18
2022-11-01T20:58:17.881Z,11.60
2022-11-01T21:01:22.076Z,11.77
2022-11-01T21:04:12.446Z,11.27
2022-11-01T21:07:00.909Z,11.60
2022-11-01T21:09:54.742Z,10.27
2022-11-01T21:12:47.517Z,10.18
2022-11-01T21:15:40.547Z,10.30
2022-11-01T21:18:44.060Z,9.82
2022-11-01T21:21:34.794Z,11.60
2022-11-01T21:24:31.882Z,9.10
2022-11-01T21:27:39.082Z,10.02
2022-11-01T21:30:28.945Z,9.68
2022-11-01T21:33:32.303Z,9.63
2022-11-01T21:36:31.309Z,9.23
2022-11-01T21:39:21.663Z,9.50
2022-11-01T21:42:26.957Z,8.73
2022-11-01T21:45:31.269Z,8.40
2022-11-01T21:48:22.224Z,9.75
2022-11-01T21:51:10.796Z,9.07
2022-11-01T21:54:03.277Z,8.68
2022-11-01T21:56:53.111Z,8.57
2022-11-01T21:59:41.906Z,8.32
2022-11-01T22:02:32.018Z,7.70
2022-11-01T22:05:20.751Z,7.20
2022-11-01T22:08:09.270Z,8.50
2022-11-01T22:10:57.959Z,8.48
2022-11-01T22:13:46.380Z,7.47
2022-11-01T22:16:35.031Z,7.55
2022-11-01T22:19:24.952Z,7.50
2022-11-01T22:22:13.497Z,8.25
2022-11-01T22:25:01.992Z,7.15
2022-11-01T22:27:50.426Z,7.32
2022-11-01T22:30:38.920Z,7.28
2022-11-01T22:33:27.595Z,6.95
2022-11-01T22:36:23.570Z,6.95
2022-11-01T22:39:20.940Z,7.63
2022-11-01T22:42:10.560Z,5.90
2022-11-01T22:45:01.724Z,6.55
2022-11-01T22:47:50.398Z,6.78
2022-11-01T22:50:38.928Z,7.00
2022-11-01T22:53:28.812Z,5.95
2022-11-01T22:56:17.210Z,5.95
2022-11-01T22:59:05.922Z,6.20
2022-11-01T23:02:00.332Z,6.18
2022-11-01T23:04:48.897Z,6.90
2022-11-01T23:07:40.299Z,5.75
2022-11-01T23:10:33.275Z,6.13
2022-11-01T23:13:42.938Z,5.25
2022-11-01T23:16:34.673Z,5.72
2022-11-01T23:19:23.284Z,5.85
2022-11-01T23:22:14.964Z,6.35
2022-11-01T23:25:05.461Z,5.43
2022-11-01T23:27:55.882Z,4.50
2022-11-01T23:30:45.318Z,5.93
2022-11-01T23:33:36.817Z,5.07
2022-11-01T23:36:27.839Z,5.22
2022-11-01T23:39:16.486Z,5.05
2022-11-01T23:42:05.362Z,5.20
2022-11-01T23:44:57.504Z,5.05
2022-11-01T23:47:46.245Z,4.18
2022-11-01T23:50:36.727Z,4.47
2022-11-01T23:53:30.932Z,4.57
2022-11-01T23:56:22.041Z,4.53
2022-11-01T23:59:11.802Z,4.03
